Aérodrome :
LOGIN :

S'inscrire | Disclaimer

   EN    FR    IT 

 










Légende :    VFR   VFR Marginal   IFR   IFR Intensif   IFR Très Intensif
Visi : 
Plafond : 
>= 8 km
>= 3000ft
5 à 8 km
1000 à 3000 ft
1500m à 5 km
500 à 1000 ft
800 à 1500m
200 à 500 ft
< 800m
< 200 ft
Symboles :   Orages  Brouillard  Fortes neiges  Fortes précipitations  Vent > 20 kt
SIGMETs :   Divers  Orages  Givrage  Turbulence  Onde Orograph.  Cendres Volcan.






- Altitude de l'aérodrome : 157 ft
- Code IATA : LIL


LFQQ - Lille Lesquin

DERNIER METAR :
  • 280730Z AUTO 33010KT 9999 -RA FEW013/// BKN027/// BKN038/// ///TCU 04/03 Q0998 TEMPO 3000 SHRA BKN012 BKN025CB

METARs EXPIRÉS :
  • 280700Z AUTO 30006KT 9999 -RA FEW020/// SCT031/// BKN043/// ///TCU 04/04 Q0998 TEMPO 3000 SHRA BKN012 BKN025CB
  • 280630Z AUTO 30007KT 9999 -RA BKN018/// BKN032/// BKN041/// ///TCU 05/04 Q0998 TEMPO 3000 SHRA BKN012 BKN025CB
  • 280600Z AUTO 31007KT 9999 ///TCU 04/03 Q0998 TEMPO 3000 SHRA BKN012 BKN025CB
  • 280530Z AUTO 32008KT 9999 FEW036 BKN050 BKN092 05/04 Q0997 TEMPO 3000 SHRA BKN012 BKN025CB
  • 280500Z AUTO 32007KT 9999 FEW028/// SCT048/// BKN100/// ///TCU 04/03 Q0997 TEMPO 3000 SHRA BKN012 BKN025CB

TAF TAF LFQQ
Valide du 28 à 06h jusqu'au 29 à 12h UTC


280500Z 2806/2912 32010KT 9999 BKN025
TEMPO 2806/2816 3000 SHRA BKN012 BKN025CB
TEMPO 2816/2822 1500 SNRA BKN005 BKN025CB
PROB30
TEMPO 2816/2823 0600 SN FG OVC002
BECMG 2823/2902 VRB03KT 2000 BR OVC003
PROB40 2901/2906 0300 FZFG VV///
BECMG 2906/2908 26010KT 9999 NSW SCT020
TEMPO 2908/2911 3000 SHRA BKN013TCU
ATIS : +33 3 20 16 19 54



MET'MAP, la Météo Aéronautique d'un coup d'oeil ! - Copyright ORBIFLY Décembre 2007 - Disclaimer

ORBIFLY MET'MAP TEAM :

Programmation & Développement : Alexandra Zaïnal
Sur une idée originale de : Baudouin d'Aumeries
Assistance à la programmation : Marc-Olivier Méhu
Soutien technique & logistique : Manuel Goepfert

Contact : metmap@orbifly.com




SOURCES & CREDITS :

   NOAA